sensor_id;sensor_type;location;lat;lon;timestamp;temperature;humidity
9151;DHT22;4610;50.006;7.490;2023-04-16T00:00:27;6.70;99.90
9151;DHT22;4610;50.006;7.490;2023-04-16T00:02:54;6.80;99.90
9151;DHT22;4610;50.006;7.490;2023-04-16T00:05:20;6.80;99.90
9151;DHT22;4610;50.006;7.490;2023-04-16T00:07:47;6.70;99.90
9151;DHT22;4610;50.006;7.490;2023-04-16T00:10:16;6.70;99.90
9151;DHT22;4610;50.006;7.490;2023-04-16T00:12:44;6.70;99.90
9151;DHT22;4610;50.006;7.490;2023-04-16T00:15:11;6.80;99.90
9151;DHT22;4610;50.006;7.490;2023-04-16T00:17:37;6.80;99.90
9151;DHT22;4610;50.006;7.490;2023-04-16T00:20:05;6.90;99.90
9151;DHT22;4610;50.006;7.490;2023-04-16T00:22:33;6.90;99.90
9151;DHT22;4610;50.006;7.490;2023-04-16T00:25:00;6.90;99.90
9151;DHT22;4610;50.006;7.490;2023-04-16T00:27:26;6.80;99.90
9151;DHT22;4610;50.006;7.490;2023-04-16T00:29:55;6.80;99.90
9151;DHT22;4610;50.006;7.490;2023-04-16T00:32:21;6.80;99.90
9151;DHT22;4610;50.006;7.490;2023-04-16T00:34:48;6.80;99.90
9151;DHT22;4610;50.006;7.490;2023-04-16T00:37:15;6.80;99.90
9151;DHT22;4610;50.006;7.490;2023-04-16T00:39:41;6.80;99.90
9151;DHT22;4610;50.006;7.490;2023-04-16T00:42:08;6.80;99.90
9151;DHT22;4610;50.006;7.490;2023-04-16T00:44:35;6.80;99.90
9151;DHT22;4610;50.006;7.490;2023-04-16T00:47:04;6.80;99.90
9151;DHT22;4610;50.006;7.490;2023-04-16T00:49:32;6.80;99.90
9151;DHT22;4610;50.006;7.490;2023-04-16T00:51:59;6.70;99.90
9151;DHT22;4610;50.006;7.490;2023-04-16T00:54:27;6.80;99.90
9151;DHT22;4610;50.006;7.490;2023-04-16T00:56:54;6.80;99.90
9151;DHT22;4610;50.006;7.490;2023-04-16T00:59:22;6.80;99.90
9151;DHT22;4610;50.006;7.490;2023-04-16T01:01:49;6.80;99.90
9151;DHT22;4610;50.006;7.490;2023-04-16T01:04:17;6.80;99.90
9151;DHT22;4610;50.006;7.490;2023-04-16T01:06:44;6.80;99.90
9151;DHT22;4610;50.006;7.490;2023-04-16T01:09:11;6.80;99.90
9151;DHT22;4610;50.006;7.490;2023-04-16T01:11:37;6.80;99.90
9151;DHT22;4610;50.006;7.490;2023-04-16T01:14:04;6.80;99.90
9151;DHT22;4610;50.006;7.490;2023-04-16T01:16:31;6.80;99.90
9151;DHT22;4610;50.006;7.490;2023-04-16T01:18:58;6.80;99.90
9151;DHT22;4610;50.006;7.490;2023-04-16T01:21:26;6.80;99.90
9151;DHT22;4610;50.006;7.490;2023-04-16T01:23:53;6.80;99.90
9151;DHT22;4610;50.006;7.490;2023-04-16T01:26:20;6.80;99.90
9151;DHT22;4610;50.006;7.490;2023-04-16T01:28:46;6.80;99.90
9151;DHT22;4610;50.006;7.490;2023-04-16T01:31:13;6.80;99.90
9151;DHT22;4610;50.006;7.490;2023-04-16T01:33:40;6.80;99.90
9151;DHT22;4610;50.006;7.490;2023-04-16T01:36:07;6.80;99.90
9151;DHT22;4610;50.006;7.490;2023-04-16T01:38:35;6.80;99.90
9151;DHT22;4610;50.006;7.490;2023-04-16T01:41:02;6.80;99.90
9151;DHT22;4610;50.006;7.490;2023-04-16T01:43:29;6.80;99.90
9151;DHT22;4610;50.006;7.490;2023-04-16T01:46:10;6.90;99.90
9151;DHT22;4610;50.006;7.490;2023-04-16T01:48:37;6.80;99.90
9151;DHT22;4610;50.006;7.490;2023-04-16T01:51:04;7.10;99.90
9151;DHT22;4610;50.006;7.490;2023-04-16T01:53:31;6.80;99.90
9151;DHT22;4610;50.006;7.490;2023-04-16T01:55:59;6.80;99.90
9151;DHT22;4610;50.006;7.490;2023-04-16T01:58:27;6.80;99.90
9151;DHT22;4610;50.006;7.490;2023-04-16T02:00:54;6.80;99.90
9151;DHT22;4610;50.006;7.490;2023-04-16T02:03:21;6.80;99.90
9151;DHT22;4610;50.006;7.490;2023-04-16T02:05:49;6.80;99.90
9151;DHT22;4610;50.006;7.490;2023-04-16T02:08:16;6.70;99.90
9151;DHT22;4610;50.006;7.490;2023-04-16T02:10:45;6.70;99.90
9151;DHT22;4610;50.006;7.490;2023-04-16T02:13:14;6.70;99.90
9151;DHT22;4610;50.006;7.490;2023-04-16T02:15:44;6.70;99.90
9151;DHT22;4610;50.006;7.490;2023-04-16T02:18:12;6.70;99.90
9151;DHT22;4610;50.006;7.490;2023-04-16T02:20:39;6.70;99.90
9151;DHT22;4610;50.006;7.490;2023-04-16T02:23:06;6.70;99.90
9151;DHT22;4610;50.006;7.490;2023-04-16T02:25:37;6.60;99.90
9151;DHT22;4610;50.006;7.490;2023-04-16T02:28:05;6.60;99.90
9151;DHT22;4610;50.006;7.490;2023-04-16T02:30:33;6.60;99.90
9151;DHT22;4610;50.006;7.490;2023-04-16T02:33:01;6.70;99.90
9151;DHT22;4610;50.006;7.490;2023-04-16T02:35:30;6.70;99.90
9151;DHT22;4610;50.006;7.490;2023-04-16T02:37:56;6.70;99.90
9151;DHT22;4610;50.006;7.490;2023-04-16T02:40:23;6.70;99.90
9151;DHT22;4610;50.006;7.490;2023-04-16T02:42:51;6.70;99.90
9151;DHT22;4610;50.006;7.490;2023-04-16T02:45:17;6.70;99.90
9151;DHT22;4610;50.006;7.490;2023-04-16T02:47:46;6.70;99.90
9151;DHT22;4610;50.006;7.490;2023-04-16T02:50:12;6.60;99.90
9151;DHT22;4610;50.006;7.490;2023-04-16T02:52:39;6.60;99.90
9151;DHT22;4610;50.006;7.490;2023-04-16T02:55:07;6.60;99.90
9151;DHT22;4610;50.006;7.490;2023-04-16T02:57:34;6.60;99.90
9151;DHT22;4610;50.006;7.490;2023-04-16T03:00:01;6.60;99.90
9151;DHT22;4610;50.006;7.490;2023-04-16T03:02:29;6.60;99.90
9151;DHT22;4610;50.006;7.490;2023-04-16T03:04:57;6.70;99.90
9151;DHT22;4610;50.006;7.490;2023-04-16T03:07:24;6.70;99.90
9151;DHT22;4610;50.006;7.490;2023-04-16T03:09:51;6.60;99.90
9151;DHT22;4610;50.006;7.490;2023-04-16T03:12:17;6.60;99.90
9151;DHT22;4610;50.006;7.490;2023-04-16T03:14:44;6.50;99.90
9151;DHT22;4610;50.006;7.490;2023-04-16T03:17:11;6.50;99.90
9151;DHT22;4610;50.006;7.490;2023-04-16T03:19:38;6.50;99.90
9151;DHT22;4610;50.006;7.490;2023-04-16T03:22:06;6.50;99.90
9151;DHT22;4610;50.006;7.490;2023-04-16T03:24:32;6.50;99.90
9151;DHT22;4610;50.006;7.490;2023-04-16T03:26:59;6.60;99.90
9151;DHT22;4610;50.006;7.490;2023-04-16T03:29:26;6.60;99.90
9151;DHT22;4610;50.006;7.490;2023-04-16T03:31:53;6.60;99.90
9151;DHT22;4610;50.006;7.490;2023-04-16T03:34:20;6.60;99.90
9151;DHT22;4610;50.006;7.490;2023-04-16T03:36:46;6.60;99.90
9151;DHT22;4610;50.006;7.490;2023-04-16T03:39:15;6.60;99.90
9151;DHT22;4610;50.006;7.490;2023-04-16T03:41:41;6.60;99.90
9151;DHT22;4610;50.006;7.490;2023-04-16T03:44:08;6.60;99.90
9151;DHT22;4610;50.006;7.490;2023-04-16T03:46:35;6.60;99.90
9151;DHT22;4610;50.006;7.490;2023-04-16T03:49:02;6.60;99.90
9151;DHT22;4610;50.006;7.490;2023-04-16T03:51:28;6.60;99.90
9151;DHT22;4610;50.006;7.490;2023-04-16T03:53:55;6.60;99.90
9151;DHT22;4610;50.006;7.490;2023-04-16T03:56:23;6.60;99.90
9151;DHT22;4610;50.006;7.490;2023-04-16T03:58:50;6.60;99.90
9151;DHT22;4610;50.006;7.490;2023-04-16T04:01:17;6.60;99.90
9151;DHT22;4610;50.006;7.490;2023-04-16T04:03:43;6.50;99.90
9151;DHT22;4610;50.006;7.490;2023-04-16T04:06:10;6.50;99.90
9151;DHT22;4610;50.006;7.490;2023-04-16T04:08:37;6.50;99.90
9151;DHT22;4610;50.006;7.490;2023-04-16T04:11:04;6.50;99.90
9151;DHT22;4610;50.006;7.490;2023-04-16T04:13:32;6.50;99.90
9151;DHT22;4610;50.006;7.490;2023-04-16T04:15:58;6.50;99.90
9151;DHT22;4610;50.006;7.490;2023-04-16T04:18:25;6.50;99.90
9151;DHT22;4610;50.006;7.490;2023-04-16T04:20:52;6.50;99.90
9151;DHT22;4610;50.006;7.490;2023-04-16T04:23:19;6.50;99.90
9151;DHT22;4610;50.006;7.490;2023-04-16T04:25:45;6.50;99.90
9151;DHT22;4610;50.006;7.490;2023-04-16T04:28:12;6.50;99.90
9151;DHT22;4610;50.006;7.490;2023-04-16T04:30:40;6.50;99.90
9151;DHT22;4610;50.006;7.490;2023-04-16T04:33:07;6.50;99.90
9151;DHT22;4610;50.006;7.490;2023-04-16T04:35:34;6.50;99.90
9151;DHT22;4610;50.006;7.490;2023-04-16T04:38:02;6.50;99.90
9151;DHT22;4610;50.006;7.490;2023-04-16T04:40:28;6.50;99.90
9151;DHT22;4610;50.006;7.490;2023-04-16T04:42:55;6.50;99.90
9151;DHT22;4610;50.006;7.490;2023-04-16T04:45:22;6.50;99.90
9151;DHT22;4610;50.006;7.490;2023-04-16T04:47:51;6.50;99.90
9151;DHT22;4610;50.006;7.490;2023-04-16T04:50:18;6.50;99.90
9151;DHT22;4610;50.006;7.490;2023-04-16T04:52:44;6.60;99.90
9151;DHT22;4610;50.006;7.490;2023-04-16T04:55:11;6.50;99.90
9151;DHT22;4610;50.006;7.490;2023-04-16T04:57:40;6.60;99.90
9151;DHT22;4610;50.006;7.490;2023-04-16T05:00:08;6.50;99.90
9151;DHT22;4610;50.006;7.490;2023-04-16T05:02:34;6.50;99.90
9151;DHT22;4610;50.006;7.490;2023-04-16T05:05:03;6.50;99.90
9151;DHT22;4610;50.006;7.490;2023-04-16T05:07:30;6.60;99.90
9151;DHT22;4610;50.006;7.490;2023-04-16T05:09:57;6.60;99.90
9151;DHT22;4610;50.006;7.490;2023-04-16T05:12:23;6.60;99.90
9151;DHT22;4610;50.006;7.490;2023-04-16T05:14:50;6.60;99.90
9151;DHT22;4610;50.006;7.490;2023-04-16T05:17:17;6.70;99.90
9151;DHT22;4610;50.006;7.490;2023-04-16T05:19:44;6.70;99.90
9151;DHT22;4610;50.006;7.490;2023-04-16T05:22:12;6.70;99.90
9151;DHT22;4610;50.006;7.490;2023-04-16T05:24:38;6.60;99.90
9151;DHT22;4610;50.006;7.490;2023-04-16T05:27:05;6.60;99.90
9151;DHT22;4610;50.006;7.490;2023-04-16T05:29:32;6.60;99.90
9151;DHT22;4610;50.006;7.490;2023-04-16T05:31:59;6.60;99.90
9151;DHT22;4610;50.006;7.490;2023-04-16T05:34:26;6.60;99.90
9151;DHT22;4610;50.006;7.490;2023-04-16T05:36:53;6.60;99.90
9151;DHT22;4610;50.006;7.490;2023-04-16T05:39:21;6.60;99.90
9151;DHT22;4610;50.006;7.490;2023-04-16T05:41:47;6.60;99.90
9151;DHT22;4610;50.006;7.490;2023-04-16T05:44:14;6.50;99.90
9151;DHT22;4610;50.006;7.490;2023-04-16T05:46:41;6.50;99.90
9151;DHT22;4610;50.006;7.490;2023-04-16T05:49:07;6.60;99.90
9151;DHT22;4610;50.006;7.490;2023-04-16T05:51:34;6.60;99.90
9151;DHT22;4610;50.006;7.490;2023-04-16T05:54:01;6.70;99.90
9151;DHT22;4610;50.006;7.490;2023-04-16T05:56:29;6.70;99.90
9151;DHT22;4610;50.006;7.490;2023-04-16T05:58:56;6.70;99.90
9151;DHT22;4610;50.006;7.490;2023-04-16T06:01:23;6.70;99.90
9151;DHT22;4610;50.006;7.490;2023-04-16T06:03:50;6.70;99.90
9151;DHT22;4610;50.006;7.490;2023-04-16T06:06:17;6.70;99.90
9151;DHT22;4610;50.006;7.490;2023-04-16T06:08:43;6.70;99.90
9151;DHT22;4610;50.006;7.490;2023-04-16T06:11:10;6.70;99.90
9151;DHT22;4610;50.006;7.490;2023-04-16T06:13:39;6.70;99.90
9151;DHT22;4610;50.006;7.490;2023-04-16T06:16:06;6.70;99.90
9151;DHT22;4610;50.006;7.490;2023-04-16T06:18:32;6.70;99.90
9151;DHT22;4610;50.006;7.490;2023-04-16T06:20:59;6.70;99.90
9151;DHT22;4610;50.006;7.490;2023-04-16T06:23:26;6.80;99.90
9151;DHT22;4610;50.006;7.490;2023-04-16T06:25:53;6.80;99.90
9151;DHT22;4610;50.006;7.490;2023-04-16T06:28:19;6.80;99.90
9151;DHT22;4610;50.006;7.490;2023-04-16T06:30:48;6.80;99.90
9151;DHT22;4610;50.006;7.490;2023-04-16T06:33:14;6.70;99.90
9151;DHT22;4610;50.006;7.490;2023-04-16T06:35:41;6.80;99.90
9151;DHT22;4610;50.006;7.490;2023-04-16T06:38:08;6.80;99.90
9151;DHT22;4610;50.006;7.490;2023-04-16T06:40:35;6.80;99.90
9151;DHT22;4610;50.006;7.490;2023-04-16T06:43:02;6.80;99.90
9151;DHT22;4610;50.006;7.490;2023-04-16T06:45:29;6.90;99.90
9151;DHT22;4610;50.006;7.490;2023-04-16T06:47:57;6.90;99.90
9151;DHT22;4610;50.006;7.490;2023-04-16T06:50:24;6.90;99.90
9151;DHT22;4610;50.006;7.490;2023-04-16T06:52:52;7.00;99.90
9151;DHT22;4610;50.006;7.490;2023-04-16T06:55:19;7.10;99.90
9151;DHT22;4610;50.006;7.490;2023-04-16T06:57:46;7.60;99.90
9151;DHT22;4610;50.006;7.490;2023-04-16T07:00:13;7.40;99.90
9151;DHT22;4610;50.006;7.490;2023-04-16T07:02:39;7.30;99.90
9151;DHT22;4610;50.006;7.490;2023-04-16T07:05:08;7.40;99.90
9151;DHT22;4610;50.006;7.490;2023-04-16T07:07:35;7.90;99.90
9151;DHT22;4610;50.006;7.490;2023-04-16T07:10:02;7.60;99.90
9151;DHT22;4610;50.006;7.490;2023-04-16T07:12:30;7.40;99.90
9151;DHT22;4610;50.006;7.490;2023-04-16T07:14:57;7.40;99.90
9151;DHT22;4610;50.006;7.490;2023-04-16T07:17:24;7.30;99.90
9151;DHT22;4610;50.006;7.490;2023-04-16T07:19:51;7.30;99.90
9151;DHT22;4610;50.006;7.490;2023-04-16T07:22:19;7.30;99.90
9151;DHT22;4610;50.006;7.490;2023-04-16T07:24:46;7.30;99.90
9151;DHT22;4610;50.006;7.490;2023-04-16T07:27:13;7.30;99.90
9151;DHT22;4610;50.006;7.490;2023-04-16T07:29:39;7.30;99.90
9151;DHT22;4610;50.006;7.490;2023-04-16T07:32:06;7.30;99.90
9151;DHT22;4610;50.006;7.490;2023-04-16T07:34:33;7.30;99.90
9151;DHT22;4610;50.006;7.490;2023-04-16T07:37:00;7.20;99.90
9151;DHT22;4610;50.006;7.490;2023-04-16T07:39:28;7.20;99.90
9151;DHT22;4610;50.006;7.490;2023-04-16T07:41:55;7.30;99.90
9151;DHT22;4610;50.006;7.490;2023-04-16T07:44:22;7.30;99.90
9151;DHT22;4610;50.006;7.490;2023-04-16T07:46:48;7.30;99.90
9151;DHT22;4610;50.006;7.490;2023-04-16T07:49:15;7.30;99.90
9151;DHT22;4610;50.006;7.490;2023-04-16T07:51:42;7.30;99.90
9151;DHT22;4610;50.006;7.490;2023-04-16T07:54:09;7.30;99.90
9151;DHT22;4610;50.006;7.490;2023-04-16T07:56:37;7.30;99.90
9151;DHT22;4610;50.006;7.490;2023-04-16T07:59:04;7.30;99.90
9151;DHT22;4610;50.006;7.490;2023-04-16T08:01:31;7.30;99.90
9151;DHT22;4610;50.006;7.490;2023-04-16T08:03:58;7.30;99.90
9151;DHT22;4610;50.006;7.490;2023-04-16T08:06:24;7.30;99.90
9151;DHT22;4610;50.006;7.490;2023-04-16T08:08:52;7.30;99.90
9151;DHT22;4610;50.006;7.490;2023-04-16T08:11:18;7.30;99.90
9151;DHT22;4610;50.006;7.490;2023-04-16T08:13:46;7.40;99.90
9151;DHT22;4610;50.006;7.490;2023-04-16T08:16:13;7.40;99.90
9151;DHT22;4610;50.006;7.490;2023-04-16T08:18:40;7.50;99.90
9151;DHT22;4610;50.006;7.490;2023-04-16T08:21:07;7.40;99.90
9151;DHT22;4610;50.006;7.490;2023-04-16T08:23:34;7.50;99.90
9151;DHT22;4610;50.006;7.490;2023-04-16T08:26:01;7.50;99.90
9151;DHT22;4610;50.006;7.490;2023-04-16T08:28:28;7.50;99.90
9151;DHT22;4610;50.006;7.490;2023-04-16T08:30:56;7.50;99.90
9151;DHT22;4610;50.006;7.490;2023-04-16T08:33:23;7.50;99.90
9151;DHT22;4610;50.006;7.490;2023-04-16T08:35:49;7.60;99.90
9151;DHT22;4610;50.006;7.490;2023-04-16T08:38:16;7.60;99.90
9151;DHT22;4610;50.006;7.490;2023-04-16T08:40:44;7.60;99.90
9151;DHT22;4610;50.006;7.490;2023-04-16T08:43:11;7.70;99.90
9151;DHT22;4610;50.006;7.490;2023-04-16T08:45:40;7.70;99.90
9151;DHT22;4610;50.006;7.490;2023-04-16T08:48:10;7.70;99.90
9151;DHT22;4610;50.006;7.490;2023-04-16T08:50:37;7.80;99.90
9151;DHT22;4610;50.006;7.490;2023-04-16T08:53:06;7.80;99.90
9151;DHT22;4610;50.006;7.490;2023-04-16T08:55:38;7.80;99.90
9151;DHT22;4610;50.006;7.490;2023-04-16T08:58:08;7.90;99.90
9151;DHT22;4610;50.006;7.490;2023-04-16T09:00:38;7.90;99.90
9151;DHT22;4610;50.006;7.490;2023-04-16T09:03:05;7.90;99.90
9151;DHT22;4610;50.006;7.490;2023-04-16T09:05:34;8.00;99.90
9151;DHT22;4610;50.006;7.490;2023-04-16T09:08:01;7.90;99.90
9151;DHT22;4610;50.006;7.490;2023-04-16T09:10:28;8.00;99.90
9151;DHT22;4610;50.006;7.490;2023-04-16T09:12:55;7.90;99.90
9151;DHT22;4610;50.006;7.490;2023-04-16T09:15:23;7.90;99.90
9151;DHT22;4610;50.006;7.490;2023-04-16T09:17:50;7.90;99.90
9151;DHT22;4610;50.006;7.490;2023-04-16T09:20:17;7.80;99.90
9151;DHT22;4610;50.006;7.490;2023-04-16T09:22:46;7.90;99.90
9151;DHT22;4610;50.006;7.490;2023-04-16T09:25:13;7.90;99.90
9151;DHT22;4610;50.006;7.490;2023-04-16T09:27:40;7.90;99.90
9151;DHT22;4610;50.006;7.490;2023-04-16T09:30:21;7.90;99.90
9151;DHT22;4610;50.006;7.490;2023-04-16T09:32:49;7.90;99.90
9151;DHT22;4610;50.006;7.490;2023-04-16T09:35:17;7.90;99.90
9151;DHT22;4610;50.006;7.490;2023-04-16T09:37:54;7.90;99.90
9151;DHT22;4610;50.006;7.490;2023-04-16T09:40:23;8.00;99.90
9151;DHT22;4610;50.006;7.490;2023-04-16T09:42:51;8.10;99.90
9151;DHT22;4610;50.006;7.490;2023-04-16T09:45:19;8.10;99.90
9151;DHT22;4610;50.006;7.490;2023-04-16T09:47:45;8.20;99.90
9151;DHT22;4610;50.006;7.490;2023-04-16T09:50:14;8.20;99.90
9151;DHT22;4610;50.006;7.490;2023-04-16T09:52:43;8.40;99.90
9151;DHT22;4610;50.006;7.490;2023-04-16T09:55:11;8.40;99.90
9151;DHT22;4610;50.006;7.490;2023-04-16T09:57:38;8.40;99.90
9151;DHT22;4610;50.006;7.490;2023-04-16T10:00:06;8.40;99.90
9151;DHT22;4610;50.006;7.490;2023-04-16T10:02:34;8.30;99.90
9151;DHT22;4610;50.006;7.490;2023-04-16T10:05:03;8.30;99.90
9151;DHT22;4610;50.006;7.490;2023-04-16T10:07:33;8.30;99.90
9151;DHT22;4610;50.006;7.490;2023-04-16T10:10:01;8.40;99.90
9151;DHT22;4610;50.006;7.490;2023-04-16T10:12:29;8.50;99.90
9151;DHT22;4610;50.006;7.490;2023-04-16T10:14:57;8.50;99.90
9151;DHT22;4610;50.006;7.490;2023-04-16T10:17:23;8.60;99.90
9151;DHT22;4610;50.006;7.490;2023-04-16T10:19:51;8.60;99.90
9151;DHT22;4610;50.006;7.490;2023-04-16T10:22:19;8.60;99.90
9151;DHT22;4610;50.006;7.490;2023-04-16T10:24:46;8.70;99.90
9151;DHT22;4610;50.006;7.490;2023-04-16T10:27:14;8.70;99.90
9151;DHT22;4610;50.006;7.490;2023-04-16T10:29:43;8.60;99.90
9151;DHT22;4610;50.006;7.490;2023-04-16T10:32:10;8.70;99.90
9151;DHT22;4610;50.006;7.490;2023-04-16T10:34:38;8.70;99.90
9151;DHT22;4610;50.006;7.490;2023-04-16T10:37:05;8.70;99.90
9151;DHT22;4610;50.006;7.490;2023-04-16T10:39:34;8.70;99.90
9151;DHT22;4610;50.006;7.490;2023-04-16T10:42:06;8.70;99.90
9151;DHT22;4610;50.006;7.490;2023-04-16T10:44:34;8.80;99.90
9151;DHT22;4610;50.006;7.490;2023-04-16T10:47:05;8.70;99.90
9151;DHT22;4610;50.006;7.490;2023-04-16T10:49:35;8.70;99.90
9151;DHT22;4610;50.006;7.490;2023-04-16T10:52:09;8.70;99.90
9151;DHT22;4610;50.006;7.490;2023-04-16T10:54:36;8.70;99.90
9151;DHT22;4610;50.006;7.490;2023-04-16T10:57:06;8.80;99.90
9151;DHT22;4610;50.006;7.490;2023-04-16T10:59:34;8.80;99.90
9151;DHT22;4610;50.006;7.490;2023-04-16T11:02:06;8.60;99.90
9151;DHT22;4610;50.006;7.490;2023-04-16T11:04:35;8.50;99.90
9151;DHT22;4610;50.006;7.490;2023-04-16T11:07:13;8.50;99.90
9151;DHT22;4610;50.006;7.490;2023-04-16T11:09:52;8.40;99.90
9151;DHT22;4610;50.006;7.490;2023-04-16T11:12:20;8.40;99.90
9151;DHT22;4610;50.006;7.490;2023-04-16T11:14:49;8.40;99.90
9151;DHT22;4610;50.006;7.490;2023-04-16T11:17:18;8.50;99.90
9151;DHT22;4610;50.006;7.490;2023-04-16T11:19:45;8.60;99.90
9151;DHT22;4610;50.006;7.490;2023-04-16T11:22:13;8.50;99.90
9151;DHT22;4610;50.006;7.490;2023-04-16T11:24:42;8.60;99.90
9151;DHT22;4610;50.006;7.490;2023-04-16T11:27:11;8.70;99.90
9151;DHT22;4610;50.006;7.490;2023-04-16T11:29:38;8.80;99.90
9151;DHT22;4610;50.006;7.490;2023-04-16T11:32:05;8.70;99.90
9151;DHT22;4610;50.006;7.490;2023-04-16T11:34:33;8.60;99.90
9151;DHT22;4610;50.006;7.490;2023-04-16T11:37:00;8.70;99.90
9151;DHT22;4610;50.006;7.490;2023-04-16T11:39:26;8.70;99.90
9151;DHT22;4610;50.006;7.490;2023-04-16T11:41:53;8.70;99.90
9151;DHT22;4610;50.006;7.490;2023-04-16T11:44:21;8.80;99.90
9151;DHT22;4610;50.006;7.490;2023-04-16T11:46:49;8.80;99.90
9151;DHT22;4610;50.006;7.490;2023-04-16T11:49:17;8.80;99.90
9151;DHT22;4610;50.006;7.490;2023-04-16T11:51:53;8.80;99.90
9151;DHT22;4610;50.006;7.490;2023-04-16T11:54:22;8.80;99.90
9151;DHT22;4610;50.006;7.490;2023-04-16T11:56:50;8.80;99.90
9151;DHT22;4610;50.006;7.490;2023-04-16T11:59:18;8.80;99.90
9151;DHT22;4610;50.006;7.490;2023-04-16T12:01:48;8.80;99.90
9151;DHT22;4610;50.006;7.490;2023-04-16T12:04:15;8.70;99.90
9151;DHT22;4610;50.006;7.490;2023-04-16T12:07:07;8.70;99.90
9151;DHT22;4610;50.006;7.490;2023-04-16T12:09:36;8.70;99.90
9151;DHT22;4610;50.006;7.490;2023-04-16T12:12:03;8.70;99.90
9151;DHT22;4610;50.006;7.490;2023-04-16T12:14:30;8.80;99.90
9151;DHT22;4610;50.006;7.490;2023-04-16T12:17:16;8.90;99.90
9151;DHT22;4610;50.006;7.490;2023-04-16T12:19:50;8.80;99.90
9151;DHT22;4610;50.006;7.490;2023-04-16T12:22:26;8.80;99.90
9151;DHT22;4610;50.006;7.490;2023-04-16T12:24:55;8.80;99.90
9151;DHT22;4610;50.006;7.490;2023-04-16T12:27:23;8.80;99.90
9151;DHT22;4610;50.006;7.490;2023-04-16T12:30:02;8.80;99.90
9151;DHT22;4610;50.006;7.490;2023-04-16T12:32:29;8.90;99.90
9151;DHT22;4610;50.006;7.490;2023-04-16T12:34:56;8.90;99.90
9151;DHT22;4610;50.006;7.490;2023-04-16T12:37:24;8.90;99.90
9151;DHT22;4610;50.006;7.490;2023-04-16T12:39:51;9.00;99.90
9151;DHT22;4610;50.006;7.490;2023-04-16T12:42:18;9.10;99.90
9151;DHT22;4610;50.006;7.490;2023-04-16T12:44:45;9.10;99.90
9151;DHT22;4610;50.006;7.490;2023-04-16T12:47:11;9.10;99.90
9151;DHT22;4610;50.006;7.490;2023-04-16T12:49:38;9.20;99.90
9151;DHT22;4610;50.006;7.490;2023-04-16T12:52:05;9.20;99.90
9151;DHT22;4610;50.006;7.490;2023-04-16T12:54:33;9.20;99.90
9151;DHT22;4610;50.006;7.490;2023-04-16T12:57:00;9.20;99.90
9151;DHT22;4610;50.006;7.490;2023-04-16T12:59:27;9.20;99.90
9151;DHT22;4610;50.006;7.490;2023-04-16T13:01:53;9.10;99.90
9151;DHT22;4610;50.006;7.490;2023-04-16T13:04:20;9.10;99.90
9151;DHT22;4610;50.006;7.490;2023-04-16T13:06:47;9.20;99.90
9151;DHT22;4610;50.006;7.490;2023-04-16T13:09:13;9.20;99.90
9151;DHT22;4610;50.006;7.490;2023-04-16T13:11:41;9.30;99.90
9151;DHT22;4610;50.006;7.490;2023-04-16T13:14:08;9.30;99.90
9151;DHT22;4610;50.006;7.490;2023-04-16T13:16:35;9.40;99.90
9151;DHT22;4610;50.006;7.490;2023-04-16T13:19:03;9.40;99.90
9151;DHT22;4610;50.006;7.490;2023-04-16T13:21:29;9.50;99.90
9151;DHT22;4610;50.006;7.490;2023-04-16T13:23:56;9.60;99.90
9151;DHT22;4610;50.006;7.490;2023-04-16T13:26:23;9.60;99.90
9151;DHT22;4610;50.006;7.490;2023-04-16T13:28:51;9.60;99.90
9151;DHT22;4610;50.006;7.490;2023-04-16T13:31:19;9.70;99.90
9151;DHT22;4610;50.006;7.490;2023-04-16T13:33:46;9.80;99.90
9151;DHT22;4610;50.006;7.490;2023-04-16T13:36:13;9.80;99.90
9151;DHT22;4610;50.006;7.490;2023-04-16T13:38:40;9.90;99.90
9151;DHT22;4610;50.006;7.490;2023-04-16T13:41:07;9.90;99.90
9151;DHT22;4610;50.006;7.490;2023-04-16T13:43:35;10.50;99.90
9151;DHT22;4610;50.006;7.490;2023-04-16T13:46:03;10.50;99.90
9151;DHT22;4610;50.006;7.490;2023-04-16T13:48:30;10.30;99.90
9151;DHT22;4610;50.006;7.490;2023-04-16T13:50:57;10.20;99.90
9151;DHT22;4610;50.006;7.490;2023-04-16T13:53:24;10.20;99.90
9151;DHT22;4610;50.006;7.490;2023-04-16T13:55:50;10.20;99.90
9151;DHT22;4610;50.006;7.490;2023-04-16T13:58:17;10.30;99.90
9151;DHT22;4610;50.006;7.490;2023-04-16T14:00:44;10.40;99.90
9151;DHT22;4610;50.006;7.490;2023-04-16T14:03:12;10.50;99.90
9151;DHT22;4610;50.006;7.490;2023-04-16T14:05:39;10.40;99.90
9151;DHT22;4610;50.006;7.490;2023-04-16T14:08:06;10.40;99.90
9151;DHT22;4610;50.006;7.490;2023-04-16T14:10:34;10.40;99.90
9151;DHT22;4610;50.006;7.490;2023-04-16T14:13:01;10.50;99.90
9151;DHT22;4610;50.006;7.490;2023-04-16T14:15:28;10.50;99.90
9151;DHT22;4610;50.006;7.490;2023-04-16T14:17:54;10.50;99.90
9151;DHT22;4610;50.006;7.490;2023-04-16T14:20:23;10.40;99.90
9151;DHT22;4610;50.006;7.490;2023-04-16T14:22:49;10.40;99.90
9151;DHT22;4610;50.006;7.490;2023-04-16T14:25:16;10.30;99.90
9151;DHT22;4610;50.006;7.490;2023-04-16T14:27:43;10.50;99.90
9151;DHT22;4610;50.006;7.490;2023-04-16T14:30:10;10.40;99.90
9151;DHT22;4610;50.006;7.490;2023-04-16T14:32:37;10.40;99.90
9151;DHT22;4610;50.006;7.490;2023-04-16T14:35:04;10.20;99.90
9151;DHT22;4610;50.006;7.490;2023-04-16T14:37:32;10.20;99.90
9151;DHT22;4610;50.006;7.490;2023-04-16T14:40:00;10.20;99.90
9151;DHT22;4610;50.006;7.490;2023-04-16T14:42:27;10.10;99.90
9151;DHT22;4610;50.006;7.490;2023-04-16T14:44:53;10.20;99.90
9151;DHT22;4610;50.006;7.490;2023-04-16T14:47:20;10.20;99.90
9151;DHT22;4610;50.006;7.490;2023-04-16T14:49:47;10.30;99.90
9151;DHT22;4610;50.006;7.490;2023-04-16T14:52:14;10.50;99.90
9151;DHT22;4610;50.006;7.490;2023-04-16T14:54:42;10.50;99.90
9151;DHT22;4610;50.006;7.490;2023-04-16T14:57:08;10.50;99.90
9151;DHT22;4610;50.006;7.490;2023-04-16T14:59:35;10.60;99.90
9151;DHT22;4610;50.006;7.490;2023-04-16T15:02:02;10.70;99.90
9151;DHT22;4610;50.006;7.490;2023-04-16T15:04:29;10.80;99.90
9151;DHT22;4610;50.006;7.490;2023-04-16T15:06:56;10.80;99.90
9151;DHT22;4610;50.006;7.490;2023-04-16T15:09:24;10.60;99.90
9151;DHT22;4610;50.006;7.490;2023-04-16T15:11:52;10.60;99.90
9151;DHT22;4610;50.006;7.490;2023-04-16T15:14:19;10.60;99.90
9151;DHT22;4610;50.006;7.490;2023-04-16T15:16:46;10.60;99.90
9151;DHT22;4610;50.006;7.490;2023-04-16T15:19:13;10.60;99.90
9151;DHT22;4610;50.006;7.490;2023-04-16T15:21:39;10.60;99.90
9151;DHT22;4610;50.006;7.490;2023-04-16T15:24:07;10.60;99.90
9151;DHT22;4610;50.006;7.490;2023-04-16T15:26:34;10.60;99.90
9151;DHT22;4610;50.006;7.490;2023-04-16T15:29:02;10.70;99.90
9151;DHT22;4610;50.006;7.490;2023-04-16T15:31:29;10.70;99.90
9151;DHT22;4610;50.006;7.490;2023-04-16T15:33:55;10.80;99.90
9151;DHT22;4610;50.006;7.490;2023-04-16T15:36:24;10.80;99.90
9151;DHT22;4610;50.006;7.490;2023-04-16T15:38:51;10.80;99.90
9151;DHT22;4610;50.006;7.490;2023-04-16T15:41:18;10.80;99.90
9151;DHT22;4610;50.006;7.490;2023-04-16T15:43:44;10.80;99.90
9151;DHT22;4610;50.006;7.490;2023-04-16T15:46:12;10.80;99.90
9151;DHT22;4610;50.006;7.490;2023-04-16T15:48:40;10.90;99.90
9151;DHT22;4610;50.006;7.490;2023-04-16T15:51:07;11.00;99.90
9151;DHT22;4610;50.006;7.490;2023-04-16T15:53:34;11.20;99.90
9151;DHT22;4610;50.006;7.490;2023-04-16T15:56:00;11.20;99.90
9151;DHT22;4610;50.006;7.490;2023-04-16T15:58:27;11.30;99.90
9151;DHT22;4610;50.006;7.490;2023-04-16T16:00:54;11.40;99.90
9151;DHT22;4610;50.006;7.490;2023-04-16T16:03:22;11.30;99.90
9151;DHT22;4610;50.006;7.490;2023-04-16T16:05:49;11.30;99.90
9151;DHT22;4610;50.006;7.490;2023-04-16T16:08:16;11.30;99.90
9151;DHT22;4610;50.006;7.490;2023-04-16T16:10:42;11.20;99.90
9151;DHT22;4610;50.006;7.490;2023-04-16T16:13:09;11.20;99.90
9151;DHT22;4610;50.006;7.490;2023-04-16T16:15:40;11.10;99.90